createdAt,value
2023-03-27T00:08:01.618Z,0.2
2023-03-27T00:20:01.690Z,0.2
2023-03-27T00:32:01.735Z,0.3
2023-03-27T00:44:01.641Z,0.3
2023-03-27T00:56:01.632Z,0.3
2023-03-27T01:08:01.976Z,0.3
2023-03-27T01:20:01.736Z,0.3
2023-03-27T01:32:01.682Z,0.4
2023-03-27T01:44:01.718Z,0.4
2023-03-27T01:56:01.611Z,0.4
2023-03-27T02:08:01.791Z,0.4
2023-03-27T02:20:01.737Z,0.4
2023-03-27T02:32:01.740Z,0.5
2023-03-27T02:44:01.870Z,0.5
2023-03-27T02:56:01.828Z,0.5
2023-03-27T03:08:01.775Z,0.5
2023-03-27T03:20:01.741Z,0.5
2023-03-27T03:32:01.892Z,0.6
2023-03-27T03:44:01.887Z,0.6
2023-03-27T03:56:01.807Z,0.6
2023-03-27T04:08:01.785Z,0.6
2023-03-27T04:20:01.900Z,0.6
2023-03-27T04:32:01.910Z,0.7
2023-03-27T04:44:01.872Z,0.7
2023-03-27T04:56:01.861Z,0.7
2023-03-27T05:08:01.959Z,0.7
2023-03-27T05:20:01.936Z,0.7
2023-03-27T05:32:01.856Z,0.8
2023-03-27T05:44:01.889Z,0.8
2023-03-27T05:56:02.569Z,0.8
2023-03-27T06:08:02.029Z,0.9
2023-03-27T06:20:01.897Z,0.9
2023-03-27T06:32:02.086Z,0.9
2023-03-27T06:44:02.048Z,0.9
2023-03-27T06:56:02.009Z,0.9
2023-03-27T07:08:11.196Z,1
2023-03-27T07:20:02.111Z,1
2023-03-27T07:32:06.199Z,1
2023-03-27T07:44:02.055Z,1
2023-03-27T07:56:01.964Z,1
2023-03-27T08:08:02.229Z,1.1
2023-03-27T08:20:02.120Z,1.1
2023-03-27T08:32:02.052Z,1.1
2023-03-27T08:44:02.241Z,1.1
2023-03-27T08:56:02.210Z,1.1
2023-03-27T09:08:02.138Z,1.2
2023-03-27T09:20:02.178Z,1.2
2023-03-27T09:32:02.263Z,1.2
2023-03-27T09:44:02.264Z,1.2
2023-03-27T09:56:03.201Z,1.2
2023-03-27T10:08:02.158Z,1.3
2023-03-27T10:20:02.308Z,1.3
2023-03-27T10:32:02.171Z,1.3
2023-03-27T10:44:02.306Z,1.3
2023-03-27T10:56:02.275Z,1.3
2023-03-27T11:08:02.197Z,1.4
2023-03-27T11:20:02.363Z,1.4
2023-03-27T11:32:02.303Z,1.5
2023-03-27T11:44:02.306Z,1.5
2023-03-27T11:56:02.223Z,1.5
2023-03-27T12:08:02.534Z,1.5
2023-03-27T12:20:02.346Z,1.5
2023-03-27T12:32:02.332Z,1.5
2023-03-27T12:44:02.291Z,1.5
2023-03-27T12:56:02.438Z,1.5
2023-03-27T13:08:02.368Z,1.6
2023-03-27T13:20:02.359Z,1.6
2023-03-27T13:32:02.481Z,1.7
2023-03-27T13:44:02.497Z,1.7
2023-03-27T13:56:02.400Z,1.7
2023-03-27T14:08:02.361Z,1.7
2023-03-27T14:20:02.543Z,1.7
2023-03-27T14:32:02.542Z,1.8
2023-03-27T14:44:02.492Z,1.8
2023-03-27T14:56:02.453Z,1.8
2023-03-27T15:08:02.448Z,1.8
2023-03-27T15:20:02.597Z,1.8
2023-03-27T15:32:02.505Z,1.9
2023-03-27T15:44:03.678Z,1.9
2023-03-27T15:56:03.169Z,1.9
2023-03-27T16:08:02.468Z,1.9
2023-03-27T16:20:02.492Z,1.9
2023-03-27T16:32:02.585Z,2
2023-03-27T16:44:02.701Z,2
2023-03-27T16:56:02.622Z,2
2023-03-27T17:08:03.332Z,2
2023-03-27T17:20:03.921Z,2
2023-03-27T17:44:02.683Z,2.1
2023-03-27T17:56:02.773Z,2.1
2023-03-27T18:08:02.725Z,2.1
2023-03-27T18:20:02.660Z,2.1
2023-03-27T18:32:02.632Z,2.2
2023-03-27T18:44:02.800Z,2.2
2023-03-27T18:56:02.877Z,2.2
2023-03-27T19:08:02.672Z,2.3
2023-03-27T19:20:02.975Z,2.3
2023-03-27T19:32:02.803Z,2.3
2023-03-27T19:44:02.795Z,2.3
2023-03-27T19:56:02.693Z,2.3
2023-03-27T20:08:02.715Z,2.4
2023-03-27T20:20:02.961Z,2.4
2023-03-27T20:32:02.864Z,2.4
2023-03-27T20:44:02.794Z,2.4
2023-03-27T20:56:03.037Z,2.4
2023-03-27T21:08:02.882Z,2.5
2023-03-27T21:20:02.873Z,2.5
2023-03-27T21:32:02.811Z,2.6
2023-03-27T21:44:02.999Z,2.6
2023-03-27T21:56:02.942Z,2.6
2023-03-27T22:08:02.847Z,2.7
2023-03-27T22:20:02.914Z,2.7
2023-03-27T22:32:02.901Z,2.7
2023-03-27T22:44:03.012Z,2.7
2023-03-27T22:56:03.365Z,2.7
2023-03-27T23:08:02.895Z,0
2023-03-27T23:20:03.070Z,0
2023-03-27T23:32:03.024Z,0.1
2023-03-27T23:44:03.017Z,0.1
2023-03-27T23:56:03.112Z,0.1
